Aérodrome :
LOGIN :

S'inscrire | Disclaimer

   EN    FR    IT 

 










Légende :    VFR   VFR Marginal   IFR   IFR Intensif   IFR Très Intensif
Visi : 
Plafond : 
>= 8 km
>= 3000ft
5 à 8 km
1000 à 3000 ft
1500m à 5 km
500 à 1000 ft
800 à 1500m
200 à 500 ft
< 800m
< 200 ft
Symboles :   Orages  Brouillard  Fortes neiges  Fortes précipitations  Vent > 20 kt
SIGMETs :   Divers  Orages  Givrage  Turbulence  Onde Orograph.  Cendres Volcan.






- Altitude de l'aérodrome : 1906 ft
- Code IATA : INN


LOWI - Innsbruck

DERNIER METAR :
  • 010820Z 26003KT 200V320 CAVOK 11/08 Q1009 NOSIG

METARs EXPIRÉS :
  • 010750Z VRB02KT 9999 FEW005 10/08 Q1010 NOSIG
  • 010720Z 24003KT 200V270 6000 SCT006 08/07 Q1010 NOSIG
  • 010650Z 26003KT 220V300 2500 BR BKN003 08/08 Q1010 BECMG 5000 SCT003 SCT005
  • 010620Z 25003KT 210V270 0900 R08/P1500U R26/1400U FG BKN002 07/07 Q1010 BECMG 2000 BR SCT004
  • 010550Z 27003KT 240V300 0500 R08/P1500D R26/0900U FG VV002 07/07 Q1011 TEMPO 1000

TAF COR TAF LOWI
Valide du 01 à 06h jusqu'au 02 à 06h UTC


010526Z 0106/0206 VRB02KT 0300 FG VV002 TX19/0114Z TN06/0106Z
TEMPO 0106/0107 3000
BECMG 0107/0109 8000 NSW SCT004
BECMG 0109/0111 08006KT CAVOK
BECMG 0200/0202 27007KT



MET'MAP, la Météo Aéronautique d'un coup d'oeil ! - Copyright ORBIFLY Décembre 2007 - Disclaimer

ORBIFLY MET'MAP TEAM :

Programmation & Développement : Alexandra Zaïnal
Sur une idée originale de : Baudouin d'Aumeries
Assistance à la programmation : Marc-Olivier Méhu
Soutien technique & logistique : Manuel Goepfert

Contact : metmap@orbifly.com




SOURCES & CREDITS :

   NOAA